Time;durP1;ratioP1;P1;durP2;ratioP2;P2;SDS_P1;SDS_P2;PMS_P1;PMS_P2;Temp;Humidity;BMP_temperature;BMP_pressure;BME280_temperature;BME280_humidity;BME280_pressure;Samples;Min_cycle;Max_cycle;Signal;HPM_P1;HPM_P2
2023/12/14 00:00:39;;;;;;;16.00;14.40;;;;;;;3.51;100.00;98089.75;5094332;28;20533;-77
2023/12/14 00:03:06;;;;;;;17.70;15.67;;;;;;;3.49;100.00;98085.69;5094305;28;20188;-78
2023/12/14 00:05:33;;;;;;;17.87;15.97;;;;;;;3.45;100.00;98085.28;5095927;28;20195;-77
2023/12/14 00:08:05;;;;;;;17.83;16.03;;;;;;;3.44;100.00;98086.31;5096367;28;20691;-77
2023/12/14 00:10:34;;;;;;;16.80;15.00;;;;;;;3.43;100.00;98090.00;5100188;28;20192;-77
2023/12/14 00:13:03;;;;;;;19.50;17.50;;;;;;;3.43;100.00;98090.00;5098425;28;20254;-77
2023/12/14 00:15:29;;;;;;;25.93;23.47;;;;;;;3.45;100.00;98090.56;5094531;28;20188;-77
2023/12/14 00:17:56;;;;;;;20.57;18.57;;;;;;;3.46;100.00;98089.56;5094314;28;20224;-77
2023/12/14 00:20:23;;;;;;;17.77;16.07;;;;;;;3.49;100.00;98086.50;5097173;28;20234;-77
2023/12/14 00:22:50;;;;;;;17.60;15.67;;;;;;;3.52;100.00;98093.22;5095763;28;20196;-76
2023/12/14 00:25:16;;;;;;;17.67;15.90;;;;;;;3.52;100.00;98090.56;5101314;28;20186;-77
2023/12/14 00:27:43;;;;;;;17.57;15.77;;;;;;;3.52;100.00;98095.84;5092471;28;20214;-76
2023/12/14 00:30:10;;;;;;;18.50;16.03;;;;;;;3.53;100.00;98106.25;5093951;28;20192;-77
2023/12/14 00:32:37;;;;;;;19.13;17.23;;;;;;;3.56;100.00;98112.94;5094984;28;20257;-77
2023/12/14 00:35:08;;;;;;;19.87;17.80;;;;;;;3.57;100.00;98098.69;5101559;28;20188;-80
2023/12/14 00:37:35;;;;;;;19.20;17.03;;;;;;;3.55;100.00;98101.53;5099485;28;20191;-77
2023/12/14 00:40:03;;;;;;;17.80;15.93;;;;;;;3.58;100.00;98110.09;5093821;28;20291;-78
2023/12/14 00:42:30;;;;;;;17.23;15.50;;;;;;;3.59;100.00;98111.72;5091740;28;20220;-77
2023/12/14 00:44:57;;;;;;;18.03;16.20;;;;;;;3.61;100.00;98109.66;5098904;28;20205;-78
2023/12/14 00:47:30;;;;;;;17.80;16.00;;;;;;;3.63;100.00;98113.72;5096058;28;20189;-77
2023/12/14 00:50:02;;;;;;;17.77;15.87;;;;;;;3.65;100.00;98114.31;5096071;28;20199;-77
2023/12/14 00:52:29;;;;;;;17.13;15.40;;;;;;;3.63;100.00;98119.03;5095935;28;20203;-79
2023/12/14 00:54:56;;;;;;;17.50;15.70;;;;;;;3.61;100.00;98126.38;5089310;28;20232;-76
2023/12/14 00:57:23;;;;;;;17.40;15.60;;;;;;;3.62;100.00;98127.19;5089767;28;20665;-80
2023/12/14 00:59:51;;;;;;;16.90;15.10;;;;;;;3.61;100.00;98136.13;5091249;28;20202;-78
2023/12/14 01:02:19;;;;;;;17.63;15.83;;;;;;;3.60;100.00;98135.31;5105051;28;20215;-77
2023/12/14 01:04:46;;;;;;;17.73;15.90;;;;;;;3.58;100.00;98139.22;5092278;28;20222;-76
2023/12/14 01:07:12;;;;;;;17.50;15.77;;;;;;;3.56;100.00;98139.41;5097612;28;20180;-77
2023/12/14 01:09:40;;;;;;;16.53;14.73;;;;;;;3.52;100.00;98146.16;5093751;28;20212;-76
2023/12/14 01:12:07;;;;;;;16.93;15.27;;;;;;;3.52;100.00;98140.88;5091912;28;20710;-77
2023/12/14 01:14:34;;;;;;;16.77;15.07;;;;;;;3.52;100.00;98148.81;5091363;28;20195;-77
2023/12/14 01:17:01;;;;;;;15.40;13.80;;;;;;;3.53;100.00;98158.38;5094565;28;20207;-76
2023/12/14 01:19:28;;;;;;;16.17;14.57;;;;;;;3.52;100.00;98154.09;5075241;28;20282;-77
2023/12/14 01:21:55;;;;;;;16.70;15.00;;;;;;;3.53;100.00;98156.56;5106000;28;20643;-78
2023/12/14 01:24:22;;;;;;;17.17;15.40;;;;;;;3.54;100.00;98154.72;5096856;28;20204;-77
2023/12/14 01:26:49;;;;;;;17.30;15.27;;;;;;;3.58;100.00;98163.06;5086550;28;20254;-77
2023/12/14 01:29:18;;;;;;;15.67;14.07;;;;;;;3.58;100.00;98157.75;5094493;28;20200;-77
2023/12/14 01:31:45;;;;;;;15.33;13.83;;;;;;;3.58;100.00;98161.22;5093214;28;20207;-78
2023/12/14 01:34:15;;;;;;;15.73;14.13;;;;;;;3.58;100.00;98157.75;5097162;28;20224;-78
2023/12/14 01:36:43;;;;;;;16.03;14.43;;;;;;;3.58;100.00;98160.41;5091191;28;20195;-77
2023/12/14 01:39:13;;;;;;;16.83;14.37;;;;;;;3.58;100.00;98169.16;5093059;28;20199;-77
2023/12/14 01:41:40;;;;;;;17.10;15.33;;;;;;;3.51;100.00;98165.72;5094922;28;20207;-78
2023/12/14 01:44:07;;;;;;;16.50;14.80;;;;;;;3.48;100.00;98166.97;5107279;28;20198;-78
2023/12/14 01:46:34;;;;;;;16.43;14.73;;;;;;;3.49;100.00;98167.78;5093542;28;20275;-76
2023/12/14 01:49:02;;;;;;;17.23;15.50;;;;;;;3.46;100.00;98165.53;5091618;28;20607;-77
2023/12/14 01:51:33;;;;;;;16.27;14.67;;;;;;;3.47;100.00;98178.56;5098675;28;20196;-77
2023/12/14 01:54:02;;;;;;;16.00;14.40;;;;;;;3.48;100.00;98171.44;5099744;28;20312;-76
2023/12/14 01:56:29;;;;;;;16.23;14.40;;;;;;;3.44;100.00;98179.00;5108543;28;20647;-77
2023/12/14 01:59:00;;;;;;;17.23;15.40;;;;;;;3.45;100.00;98187.75;5108609;28;20604;-77
2023/12/14 02:01:42;;;;;;;17.10;15.30;;;;;;;3.39;100.00;98181.47;5109828;28;20689;-78
2023/12/14 02:04:12;;;;;;;17.23;14.63;;;;;;;3.37;100.00;98180.84;5102384;28;20253;-76
2023/12/14 02:06:41;;;;;;;18.43;15.77;;;;;;;3.32;100.00;98183.28;5089052;28;20187;-77
2023/12/14 02:09:09;;;;;;;17.80;15.53;;;;;;;3.26;100.00;98191.28;5102705;28;20184;-78
2023/12/14 02:11:40;;;;;;;18.03;16.03;;;;;;;3.21;100.00;98193.72;5110066;28;20214;-78
2023/12/14 02:14:09;;;;;;;18.07;15.93;;;;;;;3.15;100.00;98197.19;5108088;28;20244;-76
2023/12/14 02:16:40;;;;;;;18.83;15.00;;;;;;;3.12;100.00;98208.19;5102073;28;20302;-76
2023/12/14 02:19:11;;;;;;;17.77;15.77;;;;;;;3.03;100.00;98213.69;5100906;28;20302;-76
2023/12/14 02:21:37;;;;;;;18.80;16.30;;;;;;;2.99;100.00;98220.41;5109875;28;20191;-77
2023/12/14 02:24:15;;;;;;;17.80;15.67;;;;;;;2.99;100.00;98228.34;5112642;28;20670;-78
2023/12/14 02:26:42;;;;;;;17.73;15.93;;;;;;;3.02;100.00;98225.31;5109666;28;20187;-77
2023/12/14 02:29:29;;;;;;;17.43;15.63;;;;;;;3.04;100.00;98233.03;5107834;28;20184;-76
2023/12/14 02:31:56;;;;;;;18.87;16.87;;;;;;;3.07;100.00;98236.09;5104971;28;20185;-77
2023/12/14 02:34:25;;;;;;;17.57;15.67;;;;;;;3.10;100.00;98233.03;5104460;28;20220;-81
2023/12/14 02:36:52;;;;;;;17.60;15.73;;;;;;;3.09;100.00;98231.41;5095295;28;20220;-77
2023/12/14 02:39:19;;;;;;;17.60;15.50;;;;;;;3.13;100.00;98237.09;5104064;28;20378;-76
2023/12/14 02:41:47;;;;;;;18.17;16.07;;;;;;;3.14;100.00;98243.19;5102992;28;20295;-78
2023/12/14 02:44:15;;;;;;;16.60;14.90;;;;;;;3.18;100.00;98247.06;5102946;28;20196;-78
2023/12/14 02:46:45;;;;;;;17.70;15.80;;;;;;;3.21;100.00;98244.00;5091982;28;20210;-76
2023/12/14 02:49:12;;;;;;;17.00;15.00;;;;;;;3.26;100.00;98252.16;5099581;28;20748;-79
2023/12/14 02:51:39;;;;;;;17.20;15.40;;;;;;;3.28;100.00;98247.44;5108189;28;20180;-78
2023/12/14 02:54:06;;;;;;;17.33;15.53;;;;;;;3.32;100.00;98246.00;5108487;28;20231;-77
2023/12/14 02:56:34;;;;;;;17.87;15.97;;;;;;;3.35;100.00;98248.25;5109945;28;20195;-77
2023/12/14 02:59:01;;;;;;;17.73;15.83;;;;;;;3.37;100.00;98254.97;5108916;28;20191;-78
2023/12/14 03:01:28;;;;;;;16.90;15.10;;;;;;;3.38;100.00;98261.06;5101800;28;20196;-77
2023/12/14 03:03:56;;;;;;;17.13;15.33;;;;;;;3.40;100.00;98261.69;5103466;28;20203;-77
2023/12/14 03:06:22;;;;;;;18.13;16.23;;;;;;;3.41;100.00;98255.34;5101263;28;20219;-77
2023/12/14 03:08:53;;;;;;;20.20;18.10;;;;;;;3.42;100.00;98259.63;5093008;28;20235;-76
2023/12/14 03:11:23;;;;;;;20.97;19.00;;;;;;;3.42;100.00;98260.47;5108510;28;20210;-77
2023/12/14 03:13:50;;;;;;;20.63;18.53;;;;;;;3.43;100.00;98259.44;5079306;28;20308;-77
2023/12/14 03:16:18;;;;;;;19.23;17.33;;;;;;;3.41;100.00;98258.00;5096443;28;20197;-77
2023/12/14 03:18:52;;;;;;;19.07;17.17;;;;;;;3.39;100.00;98263.53;5102557;28;20204;-78
2023/12/14 03:21:23;;;;;;;18.20;16.40;;;;;;;3.42;100.00;98262.28;5096849;28;20186;-78
2023/12/14 03:23:50;;;;;;;17.63;15.93;;;;;;;3.42;100.00;98270.22;5096529;28;20201;-78
2023/12/14 03:26:21;;;;;;;17.17;15.47;;;;;;;3.43;100.00;98275.31;5100128;28;20241;-79
2023/12/14 03:28:49;;;;;;;16.67;14.97;;;;;;;3.43;100.00;98279.81;5102697;28;20203;-77
2023/12/14 03:31:18;;;;;;;16.43;14.73;;;;;;;3.45;100.00;98283.88;5096907;28;20196;-77
2023/12/14 03:33:46;;;;;;;16.33;14.63;;;;;;;3.46;100.00;98285.50;5103556;28;20219;-78
2023/12/14 03:36:17;;;;;;;16.30;14.60;;;;;;;3.46;100.00;98285.50;5103584;28;20241;-77
2023/12/14 03:38:44;;;;;;;17.00;15.20;;;;;;;3.47;100.00;98291.59;5106657;28;20187;-78
2023/12/14 03:41:10;;;;;;;16.63;15.03;;;;;;;3.51;100.00;98293.63;5105043;28;20188;-78
2023/12/14 03:43:38;;;;;;;16.20;14.60;;;;;;;3.55;100.00;98302.78;5091800;28;20428;-77
2023/12/14 03:46:06;;;;;;;16.03;14.43;;;;;;;3.54;100.00;98308.31;5101116;28;20212;-77
2023/12/14 03:48:34;;;;;;;17.73;15.87;;;;;;;3.52;100.00;98303.22;5102169;28;20191;-78
2023/12/14 03:51:05;;;;;;;17.33;15.53;;;;;;;3.57;100.00;98307.06;5094521;28;20200;-78
2023/12/14 03:53:32;;;;;;;17.37;15.57;;;;;;;3.56;100.00;98303.63;5107365;28;20301;-77
2023/12/14 03:55:58;;;;;;;16.73;14.93;;;;;;;3.55;100.00;98304.63;5098654;28;20204;-78
2023/12/14 03:58:26;;;;;;;18.37;16.53;;;;;;;3.55;100.00;98301.97;5098396;28;20191;-77
2023/12/14 04:00:53;;;;;;;22.13;19.93;;;;;;;3.53;100.00;98311.97;5093449;28;20189;-78
2023/12/14 04:03:21;;;;;;;21.47;19.47;;;;;;;3.51;100.00;98309.53;5098335;28;20221;-78
2023/12/14 04:05:48;;;;;;;21.40;19.30;;;;;;;3.50;100.00;98318.47;5097955;28;20299;-78
2023/12/14 04:08:17;;;;;;;19.63;17.70;;;;;;;3.51;100.00;98321.94;5096311;28;20192;-76
2023/12/14 04:10:44;;;;;;;19.90;17.83;;;;;;;3.49;100.00;98324.81;5097194;28;20191;-78
2023/12/14 04:13:18;;;;;;;18.27;16.47;;;;;;;3.51;100.00;98322.75;5101963;28;20290;-76
2023/12/14 04:15:44;;;;;;;19.20;17.30;;;;;;;3.49;100.00;98326.66;5101781;28;20241;-76
2023/12/14 04:18:12;;;;;;;18.07;16.20;;;;;;;3.50;100.00;98328.25;5099328;28;20220;-78
2023/12/14 04:20:39;;;;;;;19.03;17.10;;;;;;;3.49;100.00;98331.94;5106700;28;20187;-76
2023/12/14 04:23:06;;;;;;;18.23;16.43;;;;;;;3.51;100.00;98333.34;5097132;28;20207;-78
2023/12/14 04:25:35;;;;;;;17.83;16.10;;;;;;;3.53;100.00;98335.81;5098207;28;20233;-77
2023/12/14 04:28:02;;;;;;;17.70;16.00;;;;;;;3.55;100.00;98347.81;5096261;28;20196;-77
2023/12/14 04:30:35;;;;;;;18.17;16.27;;;;;;;3.51;100.00;98343.94;5096510;28;20255;-78
2023/12/14 04:33:02;;;;;;;18.50;16.70;;;;;;;3.53;100.00;98349.06;5103726;28;20212;-77
2023/12/14 04:35:31;;;;;;;18.60;16.83;;;;;;;3.52;100.00;98352.72;5096049;28;20744;-78
2023/12/14 04:37:58;;;;;;;17.83;16.07;;;;;;;3.49;100.00;98353.13;5095265;28;20187;-78
2023/12/14 04:40:25;;;;;;;17.10;15.40;;;;;;;3.50;100.00;98360.84;5096598;28;20200;-81
2023/12/14 04:42:55;;;;;;;17.83;16.03;;;;;;;3.52;100.00;98368.59;5088308;28;20188;-76
2023/12/14 04:45:25;;;;;;;17.47;15.83;;;;;;;3.52;100.00;98365.97;5084761;28;20216;-76
2023/12/14 04:47:51;;;;;;;17.73;15.83;;;;;;;3.54;100.00;98363.94;5091919;28;20653;-78
2023/12/14 04:50:20;;;;;;;18.00;16.20;;;;;;;3.55;100.00;98369.00;5089804;28;20184;-77
2023/12/14 04:52:47;;;;;;;18.97;15.77;;;;;;;3.56;100.00;98367.16;5090775;28;20223;-76
2023/12/14 04:55:14;;;;;;;21.57;19.33;;;;;;;3.56;100.00;98367.16;5089202;28;20696;-76
2023/12/14 04:57:41;;;;;;;22.97;20.03;;;;;;;3.57;100.00;98368.81;5083563;28;20192;-77
2023/12/14 05:00:10;;;;;;;21.87;19.57;;;;;;;3.62;100.00;98376.94;5090698;28;20664;-77
2023/12/14 05:02:37;;;;;;;20.73;18.53;;;;;;;3.63;100.00;98370.63;5088412;28;20680;-76
2023/12/14 05:05:05;;;;;;;20.20;17.97;;;;;;;3.65;100.00;98381.81;5088147;28;20200;-77
2023/12/14 05:07:33;;;;;;;18.23;16.33;;;;;;;3.70;100.00;98384.69;5085125;28;20198;-77
2023/12/14 05:10:00;;;;;;;15.97;14.43;;;;;;;3.76;100.00;98383.88;5092529;28;20216;-77
2023/12/14 05:12:28;;;;;;;14.93;13.40;;;;;;;3.81;100.00;98383.25;5096128;28;20195;-77
2023/12/14 05:14:55;;;;;;;7.97;7.17;;;;;;;3.95;100.00;98387.50;5091579;28;20215;-76
2023/12/14 05:17:22;;;;;;;4.40;4.00;;;;;;;4.13;100.00;98392.97;5093352;28;20227;-77
2023/12/14 05:19:49;;;;;;;4.17;3.30;;;;;;;4.20;100.00;98398.25;5092065;28;20193;-77
2023/12/14 05:22:21;;;;;;;3.17;2.53;;;;;;;4.30;100.00;98404.72;5103612;28;20198;-77
2023/12/14 05:24:56;;;;;;;1.40;1.30;;;;;;;4.37;100.00;98408.19;5101080;28;20323;-79
2023/12/14 05:27:24;;;;;;;0.73;0.73;;;;;;;4.48;100.00;98406.69;5098227;28;20191;-78
2023/12/14 05:29:52;;;;;;;0.73;0.73;;;;;;;4.54;100.00;98413.00;5096659;28;20193;-77
2023/12/14 05:32:22;;;;;;;0.70;0.70;;;;;;;4.58;100.00;98404.41;5096241;28;20195;-77
2023/12/14 05:34:49;;;;;;;0.60;0.60;;;;;;;4.62;100.00;98412.78;5094771;28;20216;-77
2023/12/14 05:37:16;;;;;;;1.00;0.50;;;;;;;4.65;100.00;98420.31;5097785;28;20287;-77
2023/12/14 05:39:43;;;;;;;0.97;0.67;;;;;;;4.61;100.00;98419.91;5102818;28;20184;-77
2023/12/14 05:42:10;;;;;;;0.40;0.40;;;;;;;4.71;100.00;98424.78;5073453;28;20584;-76
2023/12/14 05:44:50;;;;;;;0.40;0.40;;;;;;;4.72;100.00;98429.03;5082435;28;20203;-78
2023/12/14 05:47:17;;;;;;;0.43;0.40;;;;;;;4.66;100.00;98422.75;5097049;28;20245;-76
2023/12/14 05:49:50;;;;;;;0.40;0.30;;;;;;;4.69;100.00;98422.31;5097440;28;20559;-78
2023/12/14 05:52:18;;;;;;;0.20;0.20;;;;;;;4.65;100.00;98420.31;5096988;28;20196;-78
2023/12/14 05:54:45;;;;;;;0.30;0.20;;;;;;;4.70;100.00;98421.31;5096550;28;20322;-78
2023/12/14 05:57:12;;;;;;;0.20;0.20;;;;;;;4.70;100.00;98423.16;5095349;28;20219;-78
2023/12/14 05:59:40;;;;;;;0.37;0.30;;;;;;;4.68;100.00;98422.53;5103978;28;20222;-78
2023/12/14 06:02:09;;;;;;;0.10;0.10;;;;;;;4.68;100.00;98427.84;5096513;28;20300;-77
2023/12/14 06:04:40;;;;;;;0.20;0.20;;;;;;;4.66;100.00;98427.25;5104552;28;20196;-78
2023/12/14 06:07:19;;;;;;;0.20;0.20;;;;;;;4.64;100.00;98426.63;5089112;28;20193;-78
2023/12/14 06:09:46;;;;;;;0.13;0.13;;;;;;;4.66;100.00;98422.75;5096672;28;20188;-79
2023/12/14 06:12:13;;;;;;;0.27;0.27;;;;;;;4.70;100.00;98425.81;5103565;28;20203;-78
2023/12/14 06:14:44;;;;;;;0.20;0.20;;;;;;;4.70;100.00;98428.44;5110909;28;20223;-76
2023/12/14 06:17:15;;;;;;;0.73;0.30;;;;;;;4.67;100.00;98427.03;5102500;28;20277;-78
2023/12/14 06:19:44;;;;;;;0.30;0.30;;;;;;;4.75;100.00;98434.75;5112285;28;20745;-77
2023/12/14 06:22:15;;;;;;;0.60;0.40;;;;;;;4.77;100.00;98430.03;5095057;28;20228;-76
2023/12/14 06:24:42;;;;;;;0.33;0.20;;;;;;;4.88;100.00;98432.03;5093188;28;20227;-78
2023/12/14 06:27:08;;;;;;;0.70;0.40;;;;;;;4.93;100.00;98436.72;5091712;28;20193;-77
2023/12/14 06:29:40;;;;;;;0.23;0.20;;;;;;;5.07;100.00;98435.59;5093257;28;20198;-77
2023/12/14 06:32:09;;;;;;;0.67;0.30;;;;;;;5.05;100.00;98435.00;5096063;28;20193;-79
2023/12/14 06:34:36;;;;;;;0.20;0.20;;;;;;;5.03;100.00;98438.91;5092450;28;20226;-78
2023/12/14 06:37:03;;;;;;;0.20;0.20;;;;;;;5.02;100.00;98442.59;5102533;28;20184;-78
2023/12/14 06:39:32;;;;;;;1.77;0.27;;;;;;;5.06;100.00;98446.44;5102184;28;20188;-81
2023/12/14 06:41:59;;;;;;;0.30;0.30;;;;;;;5.02;100.00;98445.22;5093736;28;20678;-80
2023/12/14 06:44:27;;;;;;;0.20;0.20;;;;;;;5.12;100.00;98454.38;5109234;28;20715;-79
2023/12/14 06:46:54;;;;;;;0.20;0.20;;;;;;;5.16;100.00;98454.75;5097472;28;20224;-76
2023/12/14 06:49:22;;;;;;;0.20;0.20;;;;;;;5.20;100.00;98459.44;5103526;28;20288;-78
2023/12/14 06:51:49;;;;;;;0.47;0.30;;;;;;;5.18;100.00;98456.16;5092563;28;20233;-77
2023/12/14 06:54:17;;;;;;;0.20;0.20;;;;;;;5.21;100.00;98461.06;5096946;28;20239;-78
2023/12/14 06:56:43;;;;;;;0.23;0.23;;;;;;;5.25;100.00;98470.22;5094376;28;20199;-78
2023/12/14 06:59:15;;;;;;;0.20;0.20;;;;;;;5.26;100.00;98469.19;5101373;28;20198;-78
2023/12/14 07:01:42;;;;;;;0.37;0.37;;;;;;;5.30;100.00;98475.72;5098609;28;20290;-78
2023/12/14 07:04:15;;;;;;;1.00;0.50;;;;;;;5.44;100.00;98478.28;5105316;28;20196;-78
2023/12/14 07:06:43;;;;;;;0.43;0.43;;;;;;;5.36;100.00;98483.84;5100893;28;20665;-79
2023/12/14 07:09:11;;;;;;;1.13;0.60;;;;;;;5.36;100.00;98486.50;5099528;28;20212;-79
2023/12/14 07:11:38;;;;;;;1.73;0.50;;;;;;;5.40;100.00;98499.16;5096572;28;20194;-78
2023/12/14 07:14:05;;;;;;;0.67;0.50;;;;;;;5.43;100.00;98503.22;5100725;28;20216;-78
2023/12/14 07:16:32;;;;;;;1.63;0.57;;;;;;;5.48;100.00;98506.03;5100707;28;20212;-77
2023/12/14 07:18:59;;;;;;;0.50;0.40;;;;;;;5.52;100.00;98512.56;5107083;28;20286;-78
2023/12/14 07:21:26;;;;;;;0.47;0.47;;;;;;;5.54;100.00;98513.97;5107500;28;20191;-79
2023/12/14 07:23:53;;;;;;;0.40;0.40;;;;;;;5.58;100.00;98517.00;5104927;28;20728;-77
2023/12/14 07:26:20;;;;;;;0.30;0.30;;;;;;;5.58;100.00;98517.84;5102687;28;20199;-78
2023/12/14 07:28:49;;;;;;;1.47;0.30;;;;;;;5.59;100.00;98519.47;5105343;28;20196;-78
2023/12/14 07:31:21;;;;;;;0.80;0.40;;;;;;;5.67;100.00;98516.53;5099574;28;20207;-78
2023/12/14 07:33:49;;;;;;;0.20;0.20;;;;;;;5.75;100.00;98531.41;5109854;28;20225;-79
2023/12/14 07:36:25;;;;;;;0.37;0.37;;;;;;;5.78;100.00;98535.50;5100359;28;20265;-78
2023/12/14 07:38:53;;;;;;;0.30;0.30;;;;;;;5.85;100.00;98541.56;5102846;28;20230;-79
2023/12/14 07:41:26;;;;;;;0.33;0.30;;;;;;;5.90;100.00;98542.56;5097588;28;20272;-79
2023/12/14 07:43:53;;;;;;;0.40;0.40;;;;;;;5.97;100.00;98540.66;5094612;28;20199;-80
2023/12/14 07:46:20;;;;;;;2.30;1.00;;;;;;;6.02;100.00;98543.50;5097287;28;20278;-79
2023/12/14 07:48:47;;;;;;;0.50;0.40;;;;;;;6.08;100.00;98560.44;5103088;28;20220;-78
2023/12/14 07:51:14;;;;;;;0.70;0.60;;;;;;;6.12;100.00;98553.66;5109990;28;20188;-80
2023/12/14 07:53:46;;;;;;;0.20;0.20;;;;;;;6.12;100.00;98553.66;5101710;28;20249;-79
2023/12/14 07:56:14;;;;;;;0.90;0.30;;;;;;;6.20;100.00;98556.84;5100677;28;20203;-79
2023/12/14 07:58:44;;;;;;;0.23;0.23;;;;;;;6.27;100.00;98563.97;5103886;28;20192;-79
2023/12/14 08:01:23;;;;;;;0.10;0.10;;;;;;;6.30;100.00;98567.00;5101507;28;20578;-78
2023/12/14 08:03:50;;;;;;;0.20;0.20;;;;;;;6.34;100.00;98570.06;5094256;28;20188;-79
2023/12/14 08:06:17;;;;;;;0.20;0.20;;;;;;;6.39;100.00;98578.19;5102686;28;20248;-77
2023/12/14 08:08:48;;;;;;;0.40;0.40;;;;;;;6.45;100.00;98579.97;5095939;28;20201;-78
2023/12/14 08:11:20;;;;;;;0.97;0.63;;;;;;;6.49;100.00;98584.63;5100047;28;20204;-78
2023/12/14 08:13:48;;;;;;;0.70;0.33;;;;;;;6.51;100.00;98598.56;5106991;28;20195;-78
2023/12/14 08:16:18;;;;;;;0.57;0.40;;;;;;;6.56;100.00;98598.72;5096747;28;20191;-79
2023/12/14 08:18:48;;;;;;;0.57;0.40;;;;;;;6.59;100.00;98600.94;5108150;28;20226;-79
2023/12/14 08:21:17;;;;;;;0.30;0.30;;;;;;;6.64;100.00;98609.06;5107419;28;20199;-79
2023/12/14 08:23:47;;;;;;;1.33;0.30;;;;;;;6.68;100.00;98609.44;5105650;28;20222;-78
2023/12/14 08:26:13;;;;;;;0.20;0.20;;;;;;;6.77;100.00;98617.94;5105853;28;20196;-78
2023/12/14 08:28:42;;;;;;;0.20;0.20;;;;;;;6.72;100.00;98621.28;5095516;28;20275;-77
2023/12/14 08:31:11;;;;;;;0.30;0.20;;;;;;;6.74;100.00;98618.41;5089849;28;20275;-78
2023/12/14 08:33:43;;;;;;;0.30;0.23;;;;;;;6.74;100.00;98623.72;5098303;28;20192;-80
2023/12/14 08:36:17;;;;;;;0.20;0.20;;;;;;;6.81;100.00;98622.63;5093979;28;20215;-80
2023/12/14 08:38:44;;;;;;;0.40;0.20;;;;;;;6.82;100.00;98628.75;5087117;28;20241;-77
2023/12/14 08:41:15;;;;;;;0.20;0.20;;;;;;;6.84;100.00;98630.19;5094215;28;20215;-81
2023/12/14 08:43:42;;;;;;;0.10;0.10;;;;;;;6.88;100.00;98633.22;5084014;28;20195;-79
2023/12/14 08:46:10;;;;;;;0.30;0.30;;;;;;;6.88;100.00;98643.88;5089521;28;20195;-79
2023/12/14 08:48:39;;;;;;;0.10;0.10;;;;;;;6.94;100.00;98643.81;5104008;28;20206;-80
2023/12/14 08:51:08;;;;;;;0.20;0.20;;;;;;;7.03;100.00;98633.69;5112547;28;20214;-78
2023/12/14 08:53:35;;;;;;;0.20;0.20;;;;;;;7.07;100.00;98645.53;5109393;28;20240;-78
2023/12/14 08:56:03;;;;;;;0.40;0.30;;;;;;;7.14;100.00;98646.25;5102407;28;20208;-79
2023/12/14 08:58:29;;;;;;;0.20;0.20;;;;;;;7.18;100.00;98643.97;5085320;28;20193;-79
2023/12/14 09:01:01;;;;;;;0.20;0.20;;;;;;;7.17;100.00;98651.16;5100358;28;20202;-79
2023/12/14 09:03:28;;;;;;;0.20;0.20;;;;;;;7.26;100.00;98654.34;5104980;28;20431;-79
2023/12/14 09:05:55;;;;;;;0.20;0.20;;;;;;;7.30;100.00;98661.66;5100435;28;20217;-81
2023/12/14 09:08:23;;;;;;;0.33;0.20;;;;;;;7.33;100.00;98668.38;5099382;28;20188;-77
2023/12/14 09:10:53;;;;;;;0.13;0.13;;;;;;;7.38;100.00;98664.03;5100038;28;20250;-78
2023/12/14 09:13:21;;;;;;;0.20;0.20;;;;;;;7.47;100.00;98676.03;5096701;28;20257;-79
2023/12/14 09:15:52;;;;;;;0.20;0.20;;;;;;;7.53;100.00;98669.81;5105130;28;20223;-78
2023/12/14 09:18:25;;;;;;;0.10;0.10;;;;;;;7.52;100.00;98694.00;5083195;28;20777;-78
2023/12/14 09:20:55;;;;;;;0.53;0.10;;;;;;;7.60;100.00;98701.72;5106195;28;20198;-78
2023/12/14 09:23:25;;;;;;;0.20;0.20;;;;;;;7.60;100.00;98698.25;5097372;28;20671;-77
2023/12/14 09:25:52;;;;;;;0.33;0.30;;;;;;;7.74;100.00;98697.88;5104826;27;20728;-78
2023/12/14 09:28:19;;;;;;;0.77;0.23;;;;;;;7.82;100.00;98704.75;5102933;28;20183;-81
2023/12/14 09:30:53;;;;;;;0.20;0.20;;;;;;;7.95;100.00;98709.91;5103453;28;20279;-79
2023/12/14 09:33:23;;;;;;;0.20;0.20;;;;;;;8.10;100.00;98710.31;5113951;28;20225;-80
2023/12/14 09:35:56;;;;;;;0.30;0.20;;;;;;;8.08;100.00;98716.91;5102702;28;20222;-81
2023/12/14 09:38:25;;;;;;;0.10;0.10;;;;;;;8.07;100.00;98710.75;5092221;28;20287;-79
2023/12/14 09:40:52;;;;;;;0.20;0.20;;;;;;;8.22;100.00;98723.69;5104976;28;20262;-80
2023/12/14 09:43:19;;;;;;;0.10;0.10;;;;;;;8.34;100.00;98724.59;5107251;28;20188;-79
2023/12/14 09:45:47;;;;;;;0.20;0.20;;;;;;;8.48;100.00;98728.72;5101112;28;20192;-79
2023/12/14 09:48:15;;;;;;;0.20;0.17;;;;;;;8.50;100.00;98725.78;5102430;28;20199;-80
2023/12/14 09:50:49;;;;;;;0.10;0.10;;;;;;;8.59;100.00;98722.56;5098889;28;21071;-79
2023/12/14 09:53:23;;;;;;;0.20;0.20;;;;;;;8.64;100.00;98716.53;5098165;28;20318;-79
2023/12/14 09:55:50;;;;;;;0.23;0.23;;;;;;;8.69;100.00;98730.03;5102036;28;20319;-80
2023/12/14 09:58:17;;;;;;;0.23;0.20;;;;;;;8.76;100.00;98725.41;5094485;28;20559;-80
2023/12/14 10:00:44;;;;;;;0.10;0.10;;;;;;;8.72;100.00;98737.59;5111043;28;20207;-81
2023/12/14 10:03:20;;;;;;;0.20;0.20;;;;;;;8.79;100.00;98741.78;5086473;28;20223;-79
2023/12/14 10:05:48;;;;;;;0.10;0.10;;;;;;;8.81;100.00;98746.91;5111304;28;20187;-80
2023/12/14 10:08:16;;;;;;;0.10;0.10;;;;;;;8.79;100.00;98741.78;5102482;28;20207;-80
2023/12/14 10:10:44;;;;;;;0.10;0.10;;;;;;;8.86;100.00;98749.69;5102163;28;20581;-80
2023/12/14 10:13:12;;;;;;;0.20;0.10;;;;;;;8.94;100.00;98752.03;5105600;28;20192;-79
2023/12/14 10:15:50;;;;;;;0.27;0.20;;;;;;;8.97;100.00;98751.56;5088323;28;20709;-79
2023/12/14 10:18:23;;;;;;;0.20;0.20;;;;;;;8.93;100.00;98758.41;5100922;28;20208;-78
2023/12/14 10:20:55;;;;;;;0.20;0.20;;;;;;;8.91;100.00;98749.84;5095608;28;20187;-79
2023/12/14 10:23:23;;;;;;;0.17;0.17;;;;;;;8.92;100.00;98753.28;5094787;28;20271;-80
2023/12/14 10:25:55;;;;;;;0.57;0.20;;;;;;;8.82;100.00;98756.53;5094480;28;20245;-79
2023/12/14 10:28:24;;;;;;;0.20;0.20;;;;;;;8.80;100.00;98767.44;5093676;28;20223;-79
2023/12/14 10:30:54;;;;;;;0.93;0.20;;;;;;;8.71;100.00;98766.16;5098314;28;20277;-76
2023/12/14 10:33:22;;;;;;;0.20;0.20;;;;;;;8.59;100.00;98769.81;5081048;28;20483;-79
2023/12/14 10:35:49;;;;;;;0.10;0.10;;;;;;;8.49;100.00;98770.34;5091324;28;20287;-78
2023/12/14 10:38:17;;;;;;;0.20;0.20;;;;;;;8.53;100.00;98768.88;5090049;28;20234;-80
2023/12/14 10:40:45;;;;;;;0.17;0.17;;;;;;;8.51;100.00;98775.47;5091847;28;20222;-79
2023/12/14 10:43:12;;;;;;;0.20;0.20;;;;;;;8.46;100.00;98773.50;5092174;28;20283;-78
2023/12/14 10:45:49;;;;;;;0.20;0.20;;;;;;;8.43;100.00;98781.97;5092454;28;20275;-82
2023/12/14 10:48:20;;;;;;;0.30;0.30;;;;;;;8.40;100.00;98783.22;5111519;28;20211;-79
2023/12/14 10:50:51;;;;;;;0.27;0.27;;;;;;;8.36;100.00;98784.72;5097575;28;20243;-78
2023/12/14 10:53:19;;;;;;;0.20;0.20;;;;;;;8.27;100.00;98787.88;5098968;28;20187;-79
2023/12/14 10:55:47;;;;;;;0.20;0.20;;;;;;;8.32;100.00;98796.06;5098769;28;20212;-77
2023/12/14 10:58:16;;;;;;;0.20;0.20;;;;;;;8.32;100.00;98796.88;5094101;28;20207;-79
2023/12/14 11:00:58;;;;;;;0.40;0.30;;;;;;;8.46;100.00;98804.72;5092320;28;20226;-80
2023/12/14 11:03:26;;;;;;;0.50;0.37;;;;;;;8.57;100.00;98812.78;5091376;28;20231;-80
2023/12/14 11:05:55;;;;;;;0.30;0.30;;;;;;;8.68;100.00;98808.50;5096273;27;20199;-81
2023/12/14 11:08:35;;;;;;;0.33;0.30;;;;;;;8.83;100.00;98806.22;5091332;28;20210;-78
2023/12/14 11:11:10;;;;;;;0.30;0.30;;;;;;;8.87;100.00;98811.94;5090607;28;20185;-79
2023/12/14 11:13:39;;;;;;;0.37;0.30;;;;;;;8.92;100.00;98814.72;5096083;28;20219;-79
2023/12/14 11:16:06;;;;;;;0.20;0.20;;;;;;;8.89;100.00;98813.34;5093954;28;20416;-79
2023/12/14 11:18:33;;;;;;;0.37;0.30;;;;;;;8.81;100.00;98814.50;5101454;28;20314;-79
2023/12/14 11:21:06;;;;;;;0.57;0.40;;;;;;;8.76;100.00;98816.22;5105974;28;20184;-80
2023/12/14 11:23:35;;;;;;;0.60;0.40;;;;;;;8.70;100.00;98820.59;5108911;28;20222;-79
2023/12/14 11:26:05;;;;;;;0.30;0.30;;;;;;;8.68;100.00;98822.66;5113200;28;20313;-79
2023/12/14 11:28:36;;;;;;;0.40;0.40;;;;;;;8.68;100.00;98832.53;5113391;27;20246;-79
2023/12/14 11:31:07;;;;;;;0.60;0.60;;;;;;;8.64;100.00;98826.84;5104724;28;20291;-79
2023/12/14 11:33:37;;;;;;;0.40;0.40;;;;;;;8.67;100.00;98829.06;5105336;28;20191;-79